sensor_id;sensor_type;location;lat;lon;timestamp;temperature;humidity
2897;DHT22;1458;49.728;9.228;2022-10-16T00:01:38;16.00;99.90
2897;DHT22;1458;49.728;9.228;2022-10-16T00:04:06;15.90;99.90
2897;DHT22;1458;49.728;9.228;2022-10-16T00:06:33;15.90;99.90
2897;DHT22;1458;49.728;9.228;2022-10-16T00:09:01;15.90;99.90
2897;DHT22;1458;49.728;9.228;2022-10-16T00:11:29;15.90;99.90
2897;DHT22;1458;49.728;9.228;2022-10-16T00:14:01;15.90;99.90
2897;DHT22;1458;49.728;9.228;2022-10-16T00:16:31;15.90;99.90
2897;DHT22;1458;49.728;9.228;2022-10-16T00:18:59;15.80;99.90
2897;DHT22;1458;49.728;9.228;2022-10-16T00:21:28;15.70;99.90
2897;DHT22;1458;49.728;9.228;2022-10-16T00:23:58;15.80;99.90
2897;DHT22;1458;49.728;9.228;2022-10-16T00:26:27;16.00;99.90
2897;DHT22;1458;49.728;9.228;2022-10-16T00:28:56;15.90;99.90
2897;DHT22;1458;49.728;9.228;2022-10-16T00:31:24;15.80;99.90
2897;DHT22;1458;49.728;9.228;2022-10-16T00:33:53;15.80;99.90
2897;DHT22;1458;49.728;9.228;2022-10-16T00:36:23;15.90;99.90
2897;DHT22;1458;49.728;9.228;2022-10-16T00:38:52;15.90;99.90
2897;DHT22;1458;49.728;9.228;2022-10-16T00:41:22;15.80;99.90
2897;DHT22;1458;49.728;9.228;2022-10-16T00:43:52;15.70;99.90
2897;DHT22;1458;49.728;9.228;2022-10-16T00:46:22;15.70;99.90
2897;DHT22;1458;49.728;9.228;2022-10-16T00:48:54;15.60;99.90
2897;DHT22;1458;49.728;9.228;2022-10-16T00:51:30;15.60;99.90
2897;DHT22;1458;49.728;9.228;2022-10-16T00:54:00;15.70;99.90
2897;DHT22;1458;49.728;9.228;2022-10-16T00:56:27;15.70;99.90
2897;DHT22;1458;49.728;9.228;2022-10-16T00:58:55;15.70;99.90
2897;DHT22;1458;49.728;9.228;2022-10-16T01:01:22;15.60;99.90
2897;DHT22;1458;49.728;9.228;2022-10-16T01:03:50;15.70;99.90
2897;DHT22;1458;49.728;9.228;2022-10-16T01:06:24;15.60;99.90
2897;DHT22;1458;49.728;9.228;2022-10-16T01:09:07;15.70;99.90
2897;DHT22;1458;49.728;9.228;2022-10-16T01:11:44;15.60;99.90
2897;DHT22;1458;49.728;9.228;2022-10-16T01:14:22;15.50;99.90
2897;DHT22;1458;49.728;9.228;2022-10-16T01:16:57;15.60;99.90
2897;DHT22;1458;49.728;9.228;2022-10-16T01:22:39;15.60;99.90
2897;DHT22;1458;49.728;9.228;2022-10-16T01:25:19;15.60;99.90
2897;DHT22;1458;49.728;9.228;2022-10-16T01:27:52;15.60;99.90
2897;DHT22;1458;49.728;9.228;2022-10-16T01:30:23;15.50;99.90
2897;DHT22;1458;49.728;9.228;2022-10-16T01:32:56;15.60;99.90
2897;DHT22;1458;49.728;9.228;2022-10-16T01:35:29;15.60;99.90
2897;DHT22;1458;49.728;9.228;2022-10-16T01:38:04;15.60;99.90
2897;DHT22;1458;49.728;9.228;2022-10-16T01:40:37;15.50;99.90
2897;DHT22;1458;49.728;9.228;2022-10-16T01:43:11;15.50;99.90
2897;DHT22;1458;49.728;9.228;2022-10-16T01:45:45;15.60;99.90
2897;DHT22;1458;49.728;9.228;2022-10-16T01:48:16;15.50;99.90
2897;DHT22;1458;49.728;9.228;2022-10-16T01:50:52;15.50;99.90
2897;DHT22;1458;49.728;9.228;2022-10-16T01:53:22;15.50;99.90
2897;DHT22;1458;49.728;9.228;2022-10-16T01:55:52;15.50;99.90
2897;DHT22;1458;49.728;9.228;2022-10-16T01:58:24;15.50;99.90
2897;DHT22;1458;49.728;9.228;2022-10-16T02:00:53;15.40;99.90
2897;DHT22;1458;49.728;9.228;2022-10-16T02:03:22;15.50;99.90
2897;DHT22;1458;49.728;9.228;2022-10-16T02:05:52;15.50;99.90
2897;DHT22;1458;49.728;9.228;2022-10-16T02:08:23;15.40;99.90
2897;DHT22;1458;49.728;9.228;2022-10-16T02:10:51;15.50;99.90
2897;DHT22;1458;49.728;9.228;2022-10-16T02:13:23;15.40;99.90
2897;DHT22;1458;49.728;9.228;2022-10-16T02:15:53;15.40;99.90
2897;DHT22;1458;49.728;9.228;2022-10-16T02:18:21;15.40;99.90
2897;DHT22;1458;49.728;9.228;2022-10-16T02:20:52;15.40;99.90
2897;DHT22;1458;49.728;9.228;2022-10-16T02:23:27;15.50;99.90
2897;DHT22;1458;49.728;9.228;2022-10-16T02:26:07;15.50;99.90
2897;DHT22;1458;49.728;9.228;2022-10-16T02:28:42;15.50;99.90
2897;DHT22;1458;49.728;9.228;2022-10-16T02:31:18;15.50;99.90
2897;DHT22;1458;49.728;9.228;2022-10-16T02:33:50;15.50;99.90
2897;DHT22;1458;49.728;9.228;2022-10-16T02:36:18;15.60;99.90
2897;DHT22;1458;49.728;9.228;2022-10-16T02:38:47;15.60;99.90
2897;DHT22;1458;49.728;9.228;2022-10-16T02:41:14;15.50;99.90
2897;DHT22;1458;49.728;9.228;2022-10-16T02:43:43;15.40;99.90
2897;DHT22;1458;49.728;9.228;2022-10-16T02:46:11;15.40;99.90
2897;DHT22;1458;49.728;9.228;2022-10-16T02:48:38;15.40;99.90
2897;DHT22;1458;49.728;9.228;2022-10-16T02:51:06;15.30;99.90
2897;DHT22;1458;49.728;9.228;2022-10-16T02:53:33;15.30;99.90
2897;DHT22;1458;49.728;9.228;2022-10-16T02:56:01;15.40;99.90
2897;DHT22;1458;49.728;9.228;2022-10-16T02:58:29;15.40;99.90
2897;DHT22;1458;49.728;9.228;2022-10-16T03:00:58;15.30;99.90
2897;DHT22;1458;49.728;9.228;2022-10-16T03:03:25;15.30;99.90
2897;DHT22;1458;49.728;9.228;2022-10-16T03:05:52;15.30;99.90
2897;DHT22;1458;49.728;9.228;2022-10-16T03:08:20;15.30;99.90
2897;DHT22;1458;49.728;9.228;2022-10-16T03:10:49;15.30;99.90
2897;DHT22;1458;49.728;9.228;2022-10-16T03:13:17;15.30;99.90
2897;DHT22;1458;49.728;9.228;2022-10-16T03:15:46;15.20;99.90
2897;DHT22;1458;49.728;9.228;2022-10-16T03:18:15;15.20;99.90
2897;DHT22;1458;49.728;9.228;2022-10-16T03:20:43;15.30;99.90
2897;DHT22;1458;49.728;9.228;2022-10-16T03:23:10;15.30;99.90
2897;DHT22;1458;49.728;9.228;2022-10-16T03:25:38;15.20;99.90
2897;DHT22;1458;49.728;9.228;2022-10-16T03:28:05;15.20;99.90
2897;DHT22;1458;49.728;9.228;2022-10-16T03:30:33;15.10;99.90
2897;DHT22;1458;49.728;9.228;2022-10-16T03:33:00;15.10;99.90
2897;DHT22;1458;49.728;9.228;2022-10-16T03:35:29;15.10;99.90
2897;DHT22;1458;49.728;9.228;2022-10-16T03:37:59;15.10;99.90
2897;DHT22;1458;49.728;9.228;2022-10-16T03:40:26;15.10;99.90
2897;DHT22;1458;49.728;9.228;2022-10-16T03:42:53;15.10;99.90
2897;DHT22;1458;49.728;9.228;2022-10-16T03:45:23;15.10;99.90
2897;DHT22;1458;49.728;9.228;2022-10-16T03:47:50;15.10;99.90
2897;DHT22;1458;49.728;9.228;2022-10-16T03:50:18;15.10;99.90
2897;DHT22;1458;49.728;9.228;2022-10-16T03:52:46;15.10;99.90
2897;DHT22;1458;49.728;9.228;2022-10-16T03:55:14;15.10;99.90
2897;DHT22;1458;49.728;9.228;2022-10-16T03:57:42;15.00;99.90
2897;DHT22;1458;49.728;9.228;2022-10-16T04:00:10;15.00;99.90
2897;DHT22;1458;49.728;9.228;2022-10-16T04:02:38;15.10;99.90
2897;DHT22;1458;49.728;9.228;2022-10-16T04:05:07;15.20;99.90
2897;DHT22;1458;49.728;9.228;2022-10-16T04:07:35;15.10;99.90
2897;DHT22;1458;49.728;9.228;2022-10-16T04:10:05;15.10;99.90
2897;DHT22;1458;49.728;9.228;2022-10-16T04:12:33;15.00;99.90
2897;DHT22;1458;49.728;9.228;2022-10-16T04:15:00;15.00;99.90
2897;DHT22;1458;49.728;9.228;2022-10-16T04:17:28;15.00;99.90
2897;DHT22;1458;49.728;9.228;2022-10-16T04:19:56;15.00;99.90
2897;DHT22;1458;49.728;9.228;2022-10-16T04:22:23;15.00;99.90
2897;DHT22;1458;49.728;9.228;2022-10-16T04:24:50;14.90;99.90
2897;DHT22;1458;49.728;9.228;2022-10-16T04:27:19;14.90;99.90
2897;DHT22;1458;49.728;9.228;2022-10-16T04:29:47;14.90;99.90
2897;DHT22;1458;49.728;9.228;2022-10-16T04:32:14;15.00;99.90
2897;DHT22;1458;49.728;9.228;2022-10-16T04:34:41;14.90;99.90
2897;DHT22;1458;49.728;9.228;2022-10-16T04:37:09;14.90;99.90
2897;DHT22;1458;49.728;9.228;2022-10-16T04:39:36;14.90;99.90
2897;DHT22;1458;49.728;9.228;2022-10-16T04:42:03;14.90;99.90
2897;DHT22;1458;49.728;9.228;2022-10-16T04:44:33;14.90;99.90
2897;DHT22;1458;49.728;9.228;2022-10-16T04:47:00;14.90;99.90
2897;DHT22;1458;49.728;9.228;2022-10-16T04:49:27;14.90;99.90
2897;DHT22;1458;49.728;9.228;2022-10-16T04:51:55;14.90;99.90
2897;DHT22;1458;49.728;9.228;2022-10-16T04:54:22;14.90;99.90
2897;DHT22;1458;49.728;9.228;2022-10-16T04:56:50;15.00;99.90
2897;DHT22;1458;49.728;9.228;2022-10-16T04:59:20;15.00;99.90
2897;DHT22;1458;49.728;9.228;2022-10-16T05:01:50;15.00;99.90
2897;DHT22;1458;49.728;9.228;2022-10-16T05:04:17;15.00;99.90
2897;DHT22;1458;49.728;9.228;2022-10-16T05:06:45;15.00;99.90
2897;DHT22;1458;49.728;9.228;2022-10-16T05:09:12;15.00;99.90
2897;DHT22;1458;49.728;9.228;2022-10-16T05:11:39;15.00;99.90
2897;DHT22;1458;49.728;9.228;2022-10-16T05:14:07;15.00;99.90
2897;DHT22;1458;49.728;9.228;2022-10-16T05:16:34;15.00;99.90
2897;DHT22;1458;49.728;9.228;2022-10-16T05:19:03;14.90;99.90
2897;DHT22;1458;49.728;9.228;2022-10-16T05:21:31;14.90;99.90
2897;DHT22;1458;49.728;9.228;2022-10-16T05:23:59;15.00;99.90
2897;DHT22;1458;49.728;9.228;2022-10-16T05:26:26;14.90;99.90
2897;DHT22;1458;49.728;9.228;2022-10-16T05:28:53;14.90;99.90
2897;DHT22;1458;49.728;9.228;2022-10-16T05:31:21;14.90;99.90
2897;DHT22;1458;49.728;9.228;2022-10-16T05:33:48;14.80;99.90
2897;DHT22;1458;49.728;9.228;2022-10-16T05:36:18;14.90;99.90
2897;DHT22;1458;49.728;9.228;2022-10-16T05:38:45;14.90;99.90
2897;DHT22;1458;49.728;9.228;2022-10-16T05:41:12;14.80;99.90
2897;DHT22;1458;49.728;9.228;2022-10-16T05:43:40;14.80;99.90
2897;DHT22;1458;49.728;9.228;2022-10-16T05:46:07;14.70;99.90
2897;DHT22;1458;49.728;9.228;2022-10-16T05:48:35;14.80;99.90
2897;DHT22;1458;49.728;9.228;2022-10-16T05:51:03;14.90;99.90
2897;DHT22;1458;49.728;9.228;2022-10-16T05:53:35;14.90;99.90
2897;DHT22;1458;49.728;9.228;2022-10-16T05:56:04;15.00;99.90
2897;DHT22;1458;49.728;9.228;2022-10-16T05:58:33;14.90;99.90
2897;DHT22;1458;49.728;9.228;2022-10-16T06:01:04;14.90;99.90
2897;DHT22;1458;49.728;9.228;2022-10-16T06:03:33;14.90;99.90
2897;DHT22;1458;49.728;9.228;2022-10-16T06:06:07;14.80;99.90
2897;DHT22;1458;49.728;9.228;2022-10-16T06:08:37;14.90;99.90
2897;DHT22;1458;49.728;9.228;2022-10-16T06:11:06;14.90;99.90
2897;DHT22;1458;49.728;9.228;2022-10-16T06:13:35;14.90;99.90
2897;DHT22;1458;49.728;9.228;2022-10-16T06:16:05;14.90;99.90
2897;DHT22;1458;49.728;9.228;2022-10-16T06:18:33;14.90;99.90
2897;DHT22;1458;49.728;9.228;2022-10-16T06:21:07;14.90;99.90
2897;DHT22;1458;49.728;9.228;2022-10-16T06:23:37;15.00;99.90
2897;DHT22;1458;49.728;9.228;2022-10-16T06:26:06;15.10;99.90
2897;DHT22;1458;49.728;9.228;2022-10-16T06:28:34;15.20;99.90
2897;DHT22;1458;49.728;9.228;2022-10-16T06:31:02;15.30;99.90
2897;DHT22;1458;49.728;9.228;2022-10-16T06:33:31;15.30;99.90
2897;DHT22;1458;49.728;9.228;2022-10-16T06:36:03;15.40;99.90
2897;DHT22;1458;49.728;9.228;2022-10-16T06:38:31;15.50;99.90
2897;DHT22;1458;49.728;9.228;2022-10-16T06:41:02;15.50;99.90
2897;DHT22;1458;49.728;9.228;2022-10-16T06:43:31;15.50;99.90
2897;DHT22;1458;49.728;9.228;2022-10-16T06:46:02;15.50;99.90
2897;DHT22;1458;49.728;9.228;2022-10-16T06:48:31;15.50;99.90
2897;DHT22;1458;49.728;9.228;2022-10-16T06:51:00;15.50;99.90
2897;DHT22;1458;49.728;9.228;2022-10-16T06:53:30;15.70;99.90
2897;DHT22;1458;49.728;9.228;2022-10-16T06:56:08;15.80;99.90
2897;DHT22;1458;49.728;9.228;2022-10-16T06:58:36;15.90;99.90
2897;DHT22;1458;49.728;9.228;2022-10-16T07:01:04;15.80;99.90
2897;DHT22;1458;49.728;9.228;2022-10-16T07:03:32;15.70;99.90
2897;DHT22;1458;49.728;9.228;2022-10-16T07:06:02;15.70;99.90
2897;DHT22;1458;49.728;9.228;2022-10-16T07:08:31;15.70;99.90
2897;DHT22;1458;49.728;9.228;2022-10-16T07:11:00;15.70;99.90
2897;DHT22;1458;49.728;9.228;2022-10-16T07:13:29;15.80;99.90
2897;DHT22;1458;49.728;9.228;2022-10-16T07:15:57;15.80;99.90
2897;DHT22;1458;49.728;9.228;2022-10-16T07:18:24;15.80;99.90
2897;DHT22;1458;49.728;9.228;2022-10-16T07:21:04;15.90;99.90
2897;DHT22;1458;49.728;9.228;2022-10-16T07:23:32;16.00;99.90
2897;DHT22;1458;49.728;9.228;2022-10-16T07:26:00;16.10;99.90
2897;DHT22;1458;49.728;9.228;2022-10-16T07:28:29;16.10;99.90
2897;DHT22;1458;49.728;9.228;2022-10-16T07:31:01;16.10;99.90
2897;DHT22;1458;49.728;9.228;2022-10-16T07:33:29;16.10;99.90
2897;DHT22;1458;49.728;9.228;2022-10-16T07:35:57;16.10;99.90
2897;DHT22;1458;49.728;9.228;2022-10-16T07:38:24;16.00;99.90
2897;DHT22;1458;49.728;9.228;2022-10-16T07:40:56;16.00;99.90
2897;DHT22;1458;49.728;9.228;2022-10-16T07:43:25;16.10;99.90
2897;DHT22;1458;49.728;9.228;2022-10-16T07:45:57;16.10;99.90
2897;DHT22;1458;49.728;9.228;2022-10-16T07:56:26;16.50;99.90
2897;DHT22;1458;49.728;9.228;2022-10-16T07:58:54;16.70;99.90
2897;DHT22;1458;49.728;9.228;2022-10-16T08:01:23;16.70;99.90
2897;DHT22;1458;49.728;9.228;2022-10-16T08:03:51;16.70;99.90
2897;DHT22;1458;49.728;9.228;2022-10-16T08:06:21;16.80;99.90
2897;DHT22;1458;49.728;9.228;2022-10-16T08:08:48;16.90;99.90
2897;DHT22;1458;49.728;9.228;2022-10-16T08:11:16;16.80;99.90
2897;DHT22;1458;49.728;9.228;2022-10-16T08:13:44;17.00;99.90
2897;DHT22;1458;49.728;9.228;2022-10-16T08:16:14;17.00;99.90
2897;DHT22;1458;49.728;9.228;2022-10-16T08:18:44;17.10;99.90
2897;DHT22;1458;49.728;9.228;2022-10-16T08:21:14;17.10;99.90
2897;DHT22;1458;49.728;9.228;2022-10-16T08:23:42;17.10;99.90
2897;DHT22;1458;49.728;9.228;2022-10-16T08:26:11;17.10;99.90
2897;DHT22;1458;49.728;9.228;2022-10-16T08:28:39;17.20;99.90
2897;DHT22;1458;49.728;9.228;2022-10-16T08:31:08;17.20;99.90
2897;DHT22;1458;49.728;9.228;2022-10-16T08:33:37;17.30;99.90
2897;DHT22;1458;49.728;9.228;2022-10-16T08:36:06;17.40;99.90
2897;DHT22;1458;49.728;9.228;2022-10-16T08:38:34;17.40;99.90
2897;DHT22;1458;49.728;9.228;2022-10-16T08:41:19;17.40;99.90
2897;DHT22;1458;49.728;9.228;2022-10-16T08:44:27;17.50;99.90
2897;DHT22;1458;49.728;9.228;2022-10-16T08:47:13;17.50;99.90
2897;DHT22;1458;49.728;9.228;2022-10-16T08:49:53;17.60;99.90
2897;DHT22;1458;49.728;9.228;2022-10-16T08:52:29;17.60;99.90
2897;DHT22;1458;49.728;9.228;2022-10-16T08:54:58;17.60;99.90
2897;DHT22;1458;49.728;9.228;2022-10-16T08:57:26;17.60;99.90
2897;DHT22;1458;49.728;9.228;2022-10-16T08:59:53;17.60;99.90
2897;DHT22;1458;49.728;9.228;2022-10-16T09:02:31;17.60;99.90
2897;DHT22;1458;49.728;9.228;2022-10-16T09:05:29;17.60;99.90
2897;DHT22;1458;49.728;9.228;2022-10-16T09:08:17;17.60;99.90
2897;DHT22;1458;49.728;9.228;2022-10-16T09:10:54;17.50;99.90
2897;DHT22;1458;49.728;9.228;2022-10-16T09:13:27;17.50;99.90
2897;DHT22;1458;49.728;9.228;2022-10-16T09:16:02;17.40;99.90
2897;DHT22;1458;49.728;9.228;2022-10-16T09:18:43;17.30;99.90
2897;DHT22;1458;49.728;9.228;2022-10-16T09:21:18;17.20;99.90
2897;DHT22;1458;49.728;9.228;2022-10-16T09:23:50;17.10;99.90
2897;DHT22;1458;49.728;9.228;2022-10-16T09:26:18;17.10;99.90
2897;DHT22;1458;49.728;9.228;2022-10-16T09:28:47;17.10;99.90
2897;DHT22;1458;49.728;9.228;2022-10-16T09:31:20;17.00;99.90
2897;DHT22;1458;49.728;9.228;2022-10-16T09:33:52;16.80;99.90
2897;DHT22;1458;49.728;9.228;2022-10-16T09:36:22;16.70;99.90
2897;DHT22;1458;49.728;9.228;2022-10-16T09:39:02;16.60;99.90
2897;DHT22;1458;49.728;9.228;2022-10-16T09:41:33;16.70;99.90
2897;DHT22;1458;49.728;9.228;2022-10-16T09:44:02;16.60;99.90
2897;DHT22;1458;49.728;9.228;2022-10-16T09:46:32;16.60;99.90
2897;DHT22;1458;49.728;9.228;2022-10-16T09:49:02;16.60;99.90
2897;DHT22;1458;49.728;9.228;2022-10-16T09:51:32;16.60;99.90
2897;DHT22;1458;49.728;9.228;2022-10-16T09:54:13;16.60;99.90
2897;DHT22;1458;49.728;9.228;2022-10-16T09:56:41;16.60;99.90
2897;DHT22;1458;49.728;9.228;2022-10-16T09:59:12;16.70;99.90
2897;DHT22;1458;49.728;9.228;2022-10-16T10:01:42;16.80;99.90
2897;DHT22;1458;49.728;9.228;2022-10-16T10:04:12;16.90;99.90
2897;DHT22;1458;49.728;9.228;2022-10-16T10:06:44;17.10;99.90
2897;DHT22;1458;49.728;9.228;2022-10-16T10:09:19;17.20;99.90
2897;DHT22;1458;49.728;9.228;2022-10-16T10:11:53;17.10;99.90
2897;DHT22;1458;49.728;9.228;2022-10-16T10:14:27;17.30;99.90
2897;DHT22;1458;49.728;9.228;2022-10-16T10:17:10;17.50;99.90
2897;DHT22;1458;49.728;9.228;2022-10-16T10:19:40;17.70;99.90
2897;DHT22;1458;49.728;9.228;2022-10-16T10:22:27;18.00;99.90
2897;DHT22;1458;49.728;9.228;2022-10-16T10:25:14;18.20;99.90
2897;DHT22;1458;49.728;9.228;2022-10-16T10:28:03;18.30;99.90
2897;DHT22;1458;49.728;9.228;2022-10-16T10:30:48;18.30;99.90
2897;DHT22;1458;49.728;9.228;2022-10-16T10:33:28;18.50;99.90
2897;DHT22;1458;49.728;9.228;2022-10-16T10:36:08;18.60;99.90
2897;DHT22;1458;49.728;9.228;2022-10-16T10:38:47;18.70;99.90
2897;DHT22;1458;49.728;9.228;2022-10-16T10:44:37;18.90;99.90
2897;DHT22;1458;49.728;9.228;2022-10-16T10:47:20;19.00;99.90
2897;DHT22;1458;49.728;9.228;2022-10-16T10:50:02;19.00;99.90
2897;DHT22;1458;49.728;9.228;2022-10-16T10:52:47;19.10;99.90
2897;DHT22;1458;49.728;9.228;2022-10-16T10:55:23;19.20;99.90
2897;DHT22;1458;49.728;9.228;2022-10-16T11:01:25;18.90;99.90
2897;DHT22;1458;49.728;9.228;2022-10-16T11:04:27;18.90;99.90
2897;DHT22;1458;49.728;9.228;2022-10-16T11:07:04;19.00;99.90
2897;DHT22;1458;49.728;9.228;2022-10-16T11:09:34;19.10;99.90
2897;DHT22;1458;49.728;9.228;2022-10-16T11:12:09;19.30;99.90
2897;DHT22;1458;49.728;9.228;2022-10-16T11:14:45;19.40;99.90
2897;DHT22;1458;49.728;9.228;2022-10-16T11:17:18;19.40;99.90
2897;DHT22;1458;49.728;9.228;2022-10-16T11:19:55;19.70;99.90
2897;DHT22;1458;49.728;9.228;2022-10-16T11:22:29;19.80;99.90
2897;DHT22;1458;49.728;9.228;2022-10-16T11:25:04;20.20;99.90
2897;DHT22;1458;49.728;9.228;2022-10-16T11:27:40;20.30;99.90
2897;DHT22;1458;49.728;9.228;2022-10-16T11:30:16;20.40;99.90
2897;DHT22;1458;49.728;9.228;2022-10-16T11:32:55;20.60;99.90
2897;DHT22;1458;49.728;9.228;2022-10-16T11:35:41;20.70;99.90
2897;DHT22;1458;49.728;9.228;2022-10-16T11:38:16;20.60;99.90
2897;DHT22;1458;49.728;9.228;2022-10-16T11:41:01;20.50;99.90
2897;DHT22;1458;49.728;9.228;2022-10-16T11:43:35;20.50;99.90
2897;DHT22;1458;49.728;9.228;2022-10-16T11:46:12;20.40;99.90
2897;DHT22;1458;49.728;9.228;2022-10-16T11:48:45;20.40;99.90
2897;DHT22;1458;49.728;9.228;2022-10-16T11:51:20;20.40;99.90
2897;DHT22;1458;49.728;9.228;2022-10-16T11:53:56;20.60;99.90
2897;DHT22;1458;49.728;9.228;2022-10-16T11:56:26;20.70;99.90
2897;DHT22;1458;49.728;9.228;2022-10-16T11:58:58;20.90;99.90
2897;DHT22;1458;49.728;9.228;2022-10-16T12:01:32;21.20;99.90
2897;DHT22;1458;49.728;9.228;2022-10-16T12:04:14;21.00;99.90
2897;DHT22;1458;49.728;9.228;2022-10-16T12:06:50;21.20;99.90
2897;DHT22;1458;49.728;9.228;2022-10-16T12:09:22;21.10;99.90
2897;DHT22;1458;49.728;9.228;2022-10-16T12:11:52;21.40;99.90
2897;DHT22;1458;49.728;9.228;2022-10-16T12:14:36;21.30;99.90
2897;DHT22;1458;49.728;9.228;2022-10-16T12:17:26;21.10;99.90
2897;DHT22;1458;49.728;9.228;2022-10-16T12:19:59;21.10;99.90
2897;DHT22;1458;49.728;9.228;2022-10-16T12:22:42;20.90;99.90
2897;DHT22;1458;49.728;9.228;2022-10-16T12:25:21;21.00;99.90
2897;DHT22;1458;49.728;9.228;2022-10-16T12:27:55;20.80;99.90
2897;DHT22;1458;49.728;9.228;2022-10-16T12:30:25;20.80;99.90
2897;DHT22;1458;49.728;9.228;2022-10-16T12:32:56;20.80;99.90
2897;DHT22;1458;49.728;9.228;2022-10-16T12:35:27;20.90;99.90
2897;DHT22;1458;49.728;9.228;2022-10-16T12:38:05;21.00;99.90
2897;DHT22;1458;49.728;9.228;2022-10-16T12:40:36;21.40;99.90
2897;DHT22;1458;49.728;9.228;2022-10-16T12:43:26;21.30;99.90
2897;DHT22;1458;49.728;9.228;2022-10-16T12:46:04;21.20;99.90
2897;DHT22;1458;49.728;9.228;2022-10-16T12:48:47;21.10;99.90
2897;DHT22;1458;49.728;9.228;2022-10-16T12:51:24;21.20;99.90
2897;DHT22;1458;49.728;9.228;2022-10-16T12:53:59;21.10;99.90
2897;DHT22;1458;49.728;9.228;2022-10-16T12:56:35;21.10;99.90
2897;DHT22;1458;49.728;9.228;2022-10-16T12:59:18;21.30;99.90
2897;DHT22;1458;49.728;9.228;2022-10-16T13:02:05;21.50;99.90
2897;DHT22;1458;49.728;9.228;2022-10-16T13:07:56;21.30;99.90
2897;DHT22;1458;49.728;9.228;2022-10-16T13:10:35;21.20;99.90
2897;DHT22;1458;49.728;9.228;2022-10-16T13:13:25;21.00;99.90
2897;DHT22;1458;49.728;9.228;2022-10-16T13:16:09;20.90;99.90
2897;DHT22;1458;49.728;9.228;2022-10-16T13:18:52;20.60;99.90
2897;DHT22;1458;49.728;9.228;2022-10-16T13:21:38;20.40;99.90
2897;DHT22;1458;49.728;9.228;2022-10-16T13:24:19;20.50;99.90
2897;DHT22;1458;49.728;9.228;2022-10-16T13:26:57;20.40;99.90
2897;DHT22;1458;49.728;9.228;2022-10-16T13:29:30;20.30;99.90
2897;DHT22;1458;49.728;9.228;2022-10-16T13:31:59;20.20;99.90
2897;DHT22;1458;49.728;9.228;2022-10-16T13:34:28;20.20;99.90
2897;DHT22;1458;49.728;9.228;2022-10-16T13:36:57;20.20;99.90
2897;DHT22;1458;49.728;9.228;2022-10-16T13:39:26;20.20;99.90
2897;DHT22;1458;49.728;9.228;2022-10-16T13:42:05;20.30;99.90
2897;DHT22;1458;49.728;9.228;2022-10-16T13:44:39;20.40;99.90
2897;DHT22;1458;49.728;9.228;2022-10-16T13:47:16;20.50;99.90
2897;DHT22;1458;49.728;9.228;2022-10-16T13:49:45;20.60;99.90
2897;DHT22;1458;49.728;9.228;2022-10-16T13:52:19;20.80;99.90
2897;DHT22;1458;49.728;9.228;2022-10-16T13:54:47;20.80;99.90
2897;DHT22;1458;49.728;9.228;2022-10-16T13:57:15;20.80;99.90
2897;DHT22;1458;49.728;9.228;2022-10-16T13:59:47;20.70;99.90
2897;DHT22;1458;49.728;9.228;2022-10-16T14:02:20;20.50;99.90
2897;DHT22;1458;49.728;9.228;2022-10-16T14:04:50;20.50;99.90
2897;DHT22;1458;49.728;9.228;2022-10-16T14:07:24;20.40;99.90
2897;DHT22;1458;49.728;9.228;2022-10-16T14:09:53;20.30;99.90
2897;DHT22;1458;49.728;9.228;2022-10-16T14:12:23;20.20;99.90
2897;DHT22;1458;49.728;9.228;2022-10-16T14:14:52;20.00;99.90
2897;DHT22;1458;49.728;9.228;2022-10-16T14:17:23;19.90;99.90
2897;DHT22;1458;49.728;9.228;2022-10-16T14:19:54;19.70;99.90
2897;DHT22;1458;49.728;9.228;2022-10-16T14:22:30;19.70;99.90
2897;DHT22;1458;49.728;9.228;2022-10-16T14:25:00;19.60;99.90
2897;DHT22;1458;49.728;9.228;2022-10-16T14:27:32;19.70;99.90
2897;DHT22;1458;49.728;9.228;2022-10-16T14:30:18;19.60;99.90
2897;DHT22;1458;49.728;9.228;2022-10-16T14:32:55;19.50;99.90
2897;DHT22;1458;49.728;9.228;2022-10-16T14:35:26;19.50;99.90
2897;DHT22;1458;49.728;9.228;2022-10-16T14:37:58;19.50;99.90
2897;DHT22;1458;49.728;9.228;2022-10-16T14:40:29;19.50;99.90
2897;DHT22;1458;49.728;9.228;2022-10-16T14:42:58;19.60;99.90
2897;DHT22;1458;49.728;9.228;2022-10-16T14:45:28;19.60;99.90
2897;DHT22;1458;49.728;9.228;2022-10-16T14:47:58;19.70;99.90
2897;DHT22;1458;49.728;9.228;2022-10-16T14:50:27;19.70;99.90
2897;DHT22;1458;49.728;9.228;2022-10-16T14:52:56;19.60;99.90
2897;DHT22;1458;49.728;9.228;2022-10-16T14:55:24;19.50;99.90
2897;DHT22;1458;49.728;9.228;2022-10-16T14:57:52;19.40;99.90
2897;DHT22;1458;49.728;9.228;2022-10-16T15:00:22;19.30;99.90
2897;DHT22;1458;49.728;9.228;2022-10-16T15:02:50;19.40;99.90
2897;DHT22;1458;49.728;9.228;2022-10-16T15:05:19;19.40;99.90
2897;DHT22;1458;49.728;9.228;2022-10-16T15:07:48;19.40;99.90
2897;DHT22;1458;49.728;9.228;2022-10-16T15:10:18;19.40;99.90
2897;DHT22;1458;49.728;9.228;2022-10-16T15:12:46;19.40;99.90
2897;DHT22;1458;49.728;9.228;2022-10-16T15:15:41;19.40;99.90
2897;DHT22;1458;49.728;9.228;2022-10-16T15:18:12;19.40;99.90
2897;DHT22;1458;49.728;9.228;2022-10-16T15:20:48;19.30;99.90
2897;DHT22;1458;49.728;9.228;2022-10-16T15:23:18;19.20;99.90
2897;DHT22;1458;49.728;9.228;2022-10-16T15:25:50;19.00;99.90
2897;DHT22;1458;49.728;9.228;2022-10-16T15:28:21;18.90;99.90
2897;DHT22;1458;49.728;9.228;2022-10-16T15:30:50;18.80;99.90
2897;DHT22;1458;49.728;9.228;2022-10-16T15:33:19;18.80;99.90
2897;DHT22;1458;49.728;9.228;2022-10-16T15:35:49;18.70;99.90
2897;DHT22;1458;49.728;9.228;2022-10-16T15:38:18;18.70;99.90
2897;DHT22;1458;49.728;9.228;2022-10-16T15:40:48;18.70;99.90
2897;DHT22;1458;49.728;9.228;2022-10-16T15:43:16;18.80;99.90
2897;DHT22;1458;49.728;9.228;2022-10-16T15:45:44;18.80;99.90
2897;DHT22;1458;49.728;9.228;2022-10-16T15:48:12;18.90;99.90
2897;DHT22;1458;49.728;9.228;2022-10-16T15:50:40;18.80;99.90
2897;DHT22;1458;49.728;9.228;2022-10-16T15:53:08;18.80;99.90
2897;DHT22;1458;49.728;9.228;2022-10-16T15:55:35;18.80;99.90
2897;DHT22;1458;49.728;9.228;2022-10-16T15:58:05;18.70;99.90
2897;DHT22;1458;49.728;9.228;2022-10-16T16:00:32;18.60;99.90
2897;DHT22;1458;49.728;9.228;2022-10-16T16:02:59;18.60;99.90
2897;DHT22;1458;49.728;9.228;2022-10-16T16:05:27;18.50;99.90
2897;DHT22;1458;49.728;9.228;2022-10-16T16:07:54;18.40;99.90
2897;DHT22;1458;49.728;9.228;2022-10-16T16:10:22;18.30;99.90
2897;DHT22;1458;49.728;9.228;2022-10-16T16:12:49;18.20;99.90
2897;DHT22;1458;49.728;9.228;2022-10-16T16:15:21;18.00;99.90
2897;DHT22;1458;49.728;9.228;2022-10-16T16:17:49;17.80;99.90
2897;DHT22;1458;49.728;9.228;2022-10-16T16:20:16;17.70;99.90
2897;DHT22;1458;49.728;9.228;2022-10-16T16:22:44;17.60;99.90
2897;DHT22;1458;49.728;9.228;2022-10-16T16:25:11;17.50;99.90
2897;DHT22;1458;49.728;9.228;2022-10-16T16:27:39;17.30;99.90
2897;DHT22;1458;49.728;9.228;2022-10-16T16:30:09;17.30;99.90
2897;DHT22;1458;49.728;9.228;2022-10-16T16:32:38;17.20;99.90
2897;DHT22;1458;49.728;9.228;2022-10-16T16:35:06;17.20;99.90
2897;DHT22;1458;49.728;9.228;2022-10-16T16:37:34;17.20;99.90
2897;DHT22;1458;49.728;9.228;2022-10-16T16:40:01;17.00;99.90
2897;DHT22;1458;49.728;9.228;2022-10-16T16:42:29;16.90;99.90
2897;DHT22;1458;49.728;9.228;2022-10-16T16:44:56;16.80;99.90
2897;DHT22;1458;49.728;9.228;2022-10-16T16:47:23;16.80;99.90
2897;DHT22;1458;49.728;9.228;2022-10-16T16:49:52;16.70;99.90
2897;DHT22;1458;49.728;9.228;2022-10-16T16:52:20;16.70;99.90